Time;durP1;ratioP1;P1;durP2;ratioP2;P2;SDS_P1;SDS_P2;PMS_P1;PMS_P2;Temp;Humidity;BMP_temperature;BMP_pressure;BME280_temperature;BME280_humidity;BME280_pressure;Samples;Min_cycle;Max_cycle;Signal;HPM_P1;HPM_P2
2022/10/21 00:04:31;;;;;;;28.30;25.60;;;15.60;99.90;;;;;;10353940;28;20218;-78
2022/10/21 00:09:33;;;;;;;31.33;27.00;;;15.50;99.90;;;;;;10356311;28;20205;-77
2022/10/21 00:14:37;;;;;;;33.47;29.33;;;15.50;99.90;;;;;;10359909;28;20234;-78
2022/10/21 00:19:39;;;;;;;28.03;25.10;;;15.40;99.90;;;;;;10356770;28;20269;-77
2022/10/21 00:24:41;;;;;;;27.07;24.07;;;15.40;99.90;;;;;;10358244;28;20217;-78
2022/10/21 00:29:44;;;;;;;30.70;26.50;;;15.40;99.90;;;;;;10355705;28;20214;-78
2022/10/21 00:34:47;;;;;;;27.20;23.97;;;15.40;99.90;;;;;;10334315;28;20215;-78
2022/10/21 00:39:49;;;;;;;29.50;22.80;;;15.40;99.90;;;;;;10354143;28;20215;-77
2022/10/21 00:45:24;;;;;;;27.40;24.50;;;15.40;99.90;;;;;;10352945;28;20211;-78
2022/10/21 00:50:32;;;;;;;33.20;23.60;;;15.40;99.90;;;;;;10284447;28;20207;-78
2022/10/21 00:55:39;;;;;;;27.53;24.83;;;15.40;99.90;;;;;;10350638;28;20239;-78
2022/10/21 01:00:42;;;;;;;26.80;24.10;;;15.30;99.90;;;;;;10341201;28;20663;-78
2022/10/21 01:05:45;;;;;;;24.53;22.10;;;15.40;99.90;;;;;;10355114;28;20225;-77
2022/10/21 01:10:47;;;;;;;25.60;23.00;;;15.40;99.90;;;;;;10350369;28;20195;-77
2022/10/21 01:15:56;;;;;;;26.07;23.13;;;15.40;99.90;;;;;;10357254;28;20625;-78
2022/10/21 01:21:07;;;;;;;25.13;22.73;;;15.30;99.90;;;;;;10348787;28;20282;-77
2022/10/21 01:26:29;;;;;;;25.73;23.27;;;15.40;99.90;;;;;;10357846;28;20298;-78
2022/10/21 01:31:39;;;;;;;28.83;23.60;;;15.20;99.90;;;;;;10347737;28;20195;-78
2022/10/21 01:36:48;;;;;;;25.80;23.30;;;15.20;99.90;;;;;;10364407;28;20225;-78
2022/10/21 01:41:57;;;;;;;26.83;24.03;;;15.20;99.90;;;;;;10346866;28;20214;-78
2022/10/21 01:47:07;;;;;;;26.90;24.40;;;15.30;99.90;;;;;;10361387;28;20235;-77
2022/10/21 01:52:10;;;;;;;23.80;21.40;;;15.40;99.90;;;;;;10342435;28;20206;-78
2022/10/21 01:57:16;;;;;;;27.60;24.77;;;15.40;99.90;;;;;;10355037;28;20219;-78
2022/10/21 02:02:21;;;;;;;25.63;23.10;;;15.40;99.90;;;;;;10360979;28;20206;-78
2022/10/21 02:07:23;;;;;;;25.73;22.97;;;15.40;99.90;;;;;;10342388;28;20215;-78
2022/10/21 02:12:27;;;;;;;22.10;20.00;;;15.40;99.90;;;;;;10360663;28;20202;-78
2022/10/21 02:17:31;;;;;;;21.23;18.93;;;15.50;99.90;;;;;;10341649;28;20661;-77
2022/10/21 02:22:35;;;;;;;23.33;20.80;;;15.50;99.90;;;;;;10361261;28;20205;-78
2022/10/21 02:27:37;;;;;;;22.87;20.50;;;15.40;99.90;;;;;;10342850;28;20215;-78
2022/10/21 02:32:47;;;;;;;25.77;21.70;;;15.40;99.90;;;;;;10365040;28;20583;-77
2022/10/21 02:37:54;;;;;;;22.87;20.63;;;15.50;99.90;;;;;;10342907;28;20234;-78
2022/10/21 02:42:59;;;;;;;23.03;20.93;;;15.50;99.90;;;;;;10360847;28;20214;-78
2022/10/21 02:48:03;;;;;;;23.77;21.33;;;15.60;99.90;;;;;;10342659;28;20194;-78
2022/10/21 02:53:06;;;;;;;23.57;21.37;;;15.70;99.90;;;;;;10361069;28;20230;-78
2022/10/21 02:58:08;;;;;;;25.10;22.80;;;15.70;99.90;;;;;;10356039;28;20241;-78
2022/10/21 03:03:11;;;;;;;24.00;21.60;;;15.80;99.90;;;;;;10344595;28;20199;-77
2022/10/21 03:08:13;;;;;;;23.13;21.13;;;15.80;99.90;;;;;;10361382;28;20223;-78
2022/10/21 03:13:16;;;;;;;22.80;20.73;;;15.80;99.90;;;;;;10350364;28;20219;-77
2022/10/21 03:18:19;;;;;;;24.40;22.13;;;15.70;99.90;;;;;;10366109;28;20214;-78
2022/10/21 03:23:21;;;;;;;24.50;22.00;;;15.70;99.90;;;;;;10353209;28;20657;-77
2022/10/21 03:28:23;;;;;;;25.67;23.27;;;15.70;99.90;;;;;;10364853;28;20206;-78
2022/10/21 03:33:26;;;;;;;27.83;24.93;;;15.70;99.90;;;;;;10351303;28;20627;-78
2022/10/21 03:38:29;;;;;;;26.90;24.53;;;15.70;99.90;;;;;;10365324;28;20219;-78
2022/10/21 03:43:31;;;;;;;26.30;23.90;;;15.80;99.90;;;;;;10351824;28;20310;-78
2022/10/21 03:48:34;;;;;;;24.50;22.30;;;15.80;99.90;;;;;;10362914;28;20205;-78
2022/10/21 03:53:36;;;;;;;25.70;23.30;;;15.80;99.90;;;;;;10352587;28;20238;-77
2022/10/21 03:58:38;;;;;;;24.70;22.57;;;15.90;99.90;;;;;;10342970;28;20593;-78
2022/10/21 04:03:41;;;;;;;23.67;20.67;;;15.90;99.90;;;;;;10361779;28;20206;-78
2022/10/21 04:08:43;;;;;;;21.43;19.40;;;15.90;99.90;;;;;;10351473;28;20196;-78
2022/10/21 04:13:45;;;;;;;21.63;19.43;;;16.00;99.90;;;;;;10359703;28;20228;-77
2022/10/21 04:18:49;;;;;;;28.50;21.83;;;16.00;99.90;;;;;;10353549;28;20223;-78
2022/10/21 04:23:51;;;;;;;22.60;20.80;;;16.00;99.90;;;;;;10352038;28;20208;-78
2022/10/21 04:28:53;;;;;;;22.67;20.67;;;16.10;99.90;;;;;;10358938;28;20195;-78
2022/10/21 04:33:57;;;;;;;24.13;22.23;;;16.20;99.90;;;;;;10352810;28;20215;-78
2022/10/21 04:38:59;;;;;;;17.90;16.40;;;16.20;99.90;;;;;;10358135;28;20210;-78
2022/10/21 04:44:01;;;;;;;22.00;20.10;;;16.20;99.90;;;;;;10352479;28;20744;-78
2022/10/21 04:49:05;;;;;;;21.90;14.13;;;16.20;99.90;;;;;;10356903;28;20614;-78
2022/10/21 04:54:07;;;;;;;16.90;15.40;;;16.20;99.90;;;;;;10350536;28;20222;-78
2022/10/21 04:59:09;;;;;;;17.17;14.43;;;16.20;99.90;;;;;;10332842;28;20776;-77
2022/10/21 05:04:13;;;;;;;16.07;14.20;;;16.30;99.90;;;;;;10352854;28;20277;-78
2022/10/21 05:09:15;;;;;;;14.63;13.13;;;16.40;99.90;;;;;;10360741;28;20198;-77
2022/10/21 05:14:17;;;;;;;14.80;13.40;;;16.40;99.90;;;;;;10346993;28;20219;-77
2022/10/21 05:19:20;;;;;;;14.03;11.80;;;16.50;99.90;;;;;;10347803;28;20242;-77
2022/10/21 05:24:22;;;;;;;14.83;13.27;;;16.50;99.90;;;;;;10350260;28;20249;-77
2022/10/21 05:29:24;;;;;;;15.97;11.73;;;16.50;99.90;;;;;;10348262;28;20195;-78
2022/10/21 05:34:28;;;;;;;16.77;11.60;;;16.50;99.90;;;;;;10351973;28;20230;-77
2022/10/21 05:39:30;;;;;;;14.43;12.83;;;16.60;99.90;;;;;;10353320;28;20723;-77
2022/10/21 05:44:32;;;;;;;16.87;13.07;;;16.60;99.90;;;;;;10357663;28;20823;-76
2022/10/21 05:49:35;;;;;;;13.67;11.50;;;16.50;99.90;;;;;;10368004;28;20179;-77
2022/10/21 05:54:37;;;;;;;16.33;14.83;;;16.50;99.90;;;;;;10370197;28;20223;-77
2022/10/21 05:59:39;;;;;;;16.80;15.20;;;16.50;99.90;;;;;;10351827;28;20721;-77
2022/10/21 06:04:43;;;;;;;20.03;16.70;;;16.50;99.90;;;;;;10329643;28;20223;-77
2022/10/21 06:09:45;;;;;;;18.10;13.23;;;16.50;99.90;;;;;;10329770;28;20194;-77
2022/10/21 06:14:47;;;;;;;20.97;18.13;;;16.50;99.90;;;;;;10331208;28;20249;-77
2022/10/21 06:19:50;;;;;;;19.57;17.80;;;16.50;99.90;;;;;;10347853;28;20214;-78
2022/10/21 06:24:52;;;;;;;20.63;18.67;;;16.50;99.90;;;;;;10356718;28;20226;-78
2022/10/21 06:29:54;;;;;;;21.50;19.43;;;16.50;99.90;;;;;;10345607;28;20201;-77
2022/10/21 06:34:57;;;;;;;21.93;19.70;;;16.50;99.90;;;;;;10358962;28;20297;-78
2022/10/21 06:40:00;;;;;;;22.77;20.37;;;16.40;99.90;;;;;;10347433;28;20269;-78
2022/10/21 06:45:02;;;;;;;24.37;20.67;;;16.40;99.90;;;;;;10366381;28;20242;-77
2022/10/21 06:50:06;;;;;;;24.93;22.70;;;16.30;99.90;;;;;;10354686;28;20598;-78
2022/10/21 06:55:08;;;;;;;23.33;21.00;;;16.20;99.90;;;;;;10378789;28;20698;-78
2022/10/21 07:00:12;;;;;;;25.33;19.90;;;16.20;99.90;;;;;;10361423;28;20302;-78
2022/10/21 07:05:16;;;;;;;32.53;29.00;;;16.20;99.90;;;;;;10358150;28;20215;-79
2022/10/21 07:10:18;;;;;;;24.77;22.47;;;16.20;99.90;;;;;;10371368;28;20282;-79
2022/10/21 07:15:20;;;;;;;21.83;19.73;;;16.20;99.90;;;;;;10356104;28;20230;-79
2022/10/21 07:20:24;;;;;;;25.67;20.70;;;16.30;99.90;;;;;;10355721;28;20211;-79
2022/10/21 07:25:26;;;;;;;19.63;15.90;;;16.30;99.90;;;;;;10354725;28;20737;-79
2022/10/21 07:30:28;;;;;;;35.20;25.93;;;16.30;99.90;;;;;;10367531;28;20215;-79
2022/10/21 07:35:31;;;;;;;26.60;21.50;;;16.30;99.90;;;;;;10358580;28;20223;-79
2022/10/21 07:40:39;;;;;;;32.87;24.27;;;16.30;99.90;;;;;;10332033;28;20220;-78
2022/10/21 07:45:42;;;;;;;31.03;22.97;;;16.40;99.90;;;;;;10378186;28;20218;-79
2022/10/21 07:50:47;;;;;;;28.07;23.50;;;16.40;99.90;;;;;;10373586;28;20554;-79
2022/10/21 07:55:49;;;;;;;43.87;26.43;;;16.50;99.90;;;;;;10356433;28;20234;-79
2022/10/21 08:00:51;;;;;;;20.73;18.83;;;16.50;99.90;;;;;;10358424;28;20219;-79
2022/10/21 08:05:56;;;;;;;21.90;20.37;;;16.50;99.90;;;;;;10375019;28;20219;-79
2022/10/21 08:11:00;;;;;;;23.70;20.10;;;16.50;99.90;;;;;;10351868;28;20199;-78
2022/10/21 08:16:07;;;;;;;22.63;20.57;;;16.50;99.90;;;;;;10372443;28;20227;-79
2022/10/21 08:21:10;;;;;;;21.80;20.03;;;16.50;99.90;;;;;;10353367;28;20616;-79
2022/10/21 08:26:15;;;;;;;21.23;19.43;;;16.50;99.90;;;;;;10371989;28;20215;-79
2022/10/21 08:31:19;;;;;;;24.03;21.63;;;16.50;99.90;;;;;;10351334;28;20191;-78
2022/10/21 08:36:25;;;;;;;23.33;21.03;;;16.60;99.90;;;;;;10370416;28;20239;-78
2022/10/21 08:41:57;;;;;;;24.17;21.80;;;16.60;99.90;;;;;;10346830;28;20242;-79
2022/10/21 08:47:08;;;;;;;17.07;14.83;;;16.60;99.90;;;;;;10365712;28;20614;-79
2022/10/21 08:52:19;;;;;;;23.00;20.83;;;16.50;99.90;;;;;;10346217;28;20195;-79
2022/10/21 08:57:21;;;;;;;26.80;23.00;;;16.50;99.90;;;;;;10370261;28;20679;-79
2022/10/21 09:02:43;;;;;;;26.40;23.93;;;16.50;99.90;;;;;;10363441;28;20203;-79
2022/10/21 09:07:55;;;;;;;26.43;23.67;;;16.60;99.90;;;;;;10354890;28;20297;-80
2022/10/21 09:13:03;;;;;;;22.13;20.33;;;16.60;99.90;;;;;;10361789;28;20203;-79
2022/10/21 09:18:21;;;;;;;25.03;22.70;;;16.60;99.90;;;;;;10356935;28;20210;-80
2022/10/21 09:23:50;;;;;;;22.90;20.73;;;16.70;99.90;;;;;;10360350;28;20252;-80
2022/10/21 09:28:54;;;;;;;23.67;21.50;;;16.70;99.90;;;;;;10363246;28;20277;-80
2022/10/21 09:33:59;;;;;;;22.43;20.67;;;16.80;99.90;;;;;;10357186;28;20395;-79
2022/10/21 09:39:07;;;;;;;21.80;19.83;;;16.80;99.90;;;;;;10337883;28;20242;-80
2022/10/21 09:44:16;;;;;;;21.03;19.33;;;16.90;99.90;;;;;;10363117;28;20268;-80
2022/10/21 09:49:27;;;;;;;15.10;14.10;;;17.00;99.90;;;;;;10367431;28;20250;-80
2022/10/21 09:54:35;;;;;;;20.07;18.40;;;17.00;99.90;;;;;;10346030;28;20210;-78
2022/10/21 09:59:53;;;;;;;19.23;17.63;;;17.10;99.90;;;;;;10377590;28;20766;-80
2022/10/21 10:04:58;;;;;;;17.93;16.70;;;17.10;99.90;;;;;;10353833;28;20306;-80
2022/10/21 10:10:03;;;;;;;12.47;11.47;;;17.10;99.90;;;;;;10350160;28;20664;-80
2022/10/21 10:15:25;;;;;;;15.87;14.83;;;17.10;99.90;;;;;;10350801;28;20251;-79
2022/10/21 10:20:29;;;;;;;18.97;17.33;;;17.20;99.90;;;;;;10367043;28;20221;-79
2022/10/21 10:25:34;;;;;;;17.50;16.13;;;17.30;99.90;;;;;;10347300;28;20222;-80
2022/10/21 10:30:38;;;;;;;15.53;14.33;;;17.30;99.90;;;;;;10365432;28;20712;-79
2022/10/21 10:35:48;;;;;;;14.30;13.17;;;17.40;99.90;;;;;;10347465;28;20211;-79
2022/10/21 10:40:53;;;;;;;16.80;9.50;;;17.40;99.90;;;;;;10367348;28;20598;-79
2022/10/21 10:45:58;;;;;;;16.20;14.93;;;17.40;99.90;;;;;;10349660;28;20239;-79
2022/10/21 10:51:05;;;;;;;14.20;12.90;;;17.50;99.90;;;;;;10373805;28;20198;-77
2022/10/21 10:56:18;;;;;;;16.20;14.57;;;17.60;99.90;;;;;;10347713;28;20215;-79
2022/10/21 11:01:27;;;;;;;13.93;12.93;;;17.60;99.90;;;;;;10343238;28;20219;-79
2022/10/21 11:06:43;;;;;;;15.57;14.30;;;17.60;99.90;;;;;;10367372;28;20771;-79
2022/10/21 11:11:50;;;;;;;17.20;13.50;;;17.70;99.90;;;;;;10342632;28;20600;-79
2022/10/21 11:17:09;;;;;;;12.50;11.60;;;17.80;99.90;;;;;;10368432;28;20686;-78
2022/10/21 11:22:27;;;;;;;12.60;11.50;;;17.90;99.90;;;;;;10336558;28;20342;-78
2022/10/21 11:27:47;;;;;;;12.07;11.27;;;17.90;99.90;;;;;;10325426;28;20319;-77
2022/10/21 11:33:07;;;;;;;10.63;10.00;;;18.10;99.90;;;;;;10329977;28;20231;-78
2022/10/21 11:38:35;;;;;;;10.80;10.03;;;18.30;99.90;;;;;;10327176;28;20699;-77
2022/10/21 11:43:46;;;;;;;10.33;9.60;;;18.40;99.90;;;;;;10331433;28;20277;-77
2022/10/21 11:48:59;;;;;;;10.87;10.17;;;18.40;99.90;;;;;;10330753;28;20674;-78
2022/10/21 11:54:33;;;;;;;9.97;9.27;;;18.50;99.90;;;;;;10339828;28;20231;-78
2022/10/21 11:59:49;;;;;;;9.63;8.23;;;18.70;99.90;;;;;;10337624;28;20344;-78
2022/10/21 12:05:02;;;;;;;6.70;6.00;;;18.70;99.90;;;;;;10336407;28;20660;-78
2022/10/21 12:10:10;;;;;;;7.93;7.33;;;18.80;99.90;;;;;;10347112;28;20338;-77
2022/10/21 12:15:20;;;;;;;8.77;8.17;;;18.70;99.90;;;;;;10354683;28;20223;-78
2022/10/21 12:20:25;;;;;;;4.80;4.07;;;18.70;99.90;;;;;;10350763;28;20680;-78
2022/10/21 12:25:36;;;;;;;7.67;7.10;;;18.60;99.90;;;;;;10366328;28;20222;-78
2022/10/21 12:30:49;;;;;;;9.40;8.70;;;18.60;99.90;;;;;;10343480;28;20637;-78
2022/10/21 12:35:53;;;;;;;7.77;7.07;;;18.50;99.90;;;;;;10349119;28;20644;-78
2022/10/21 12:41:25;;;;;;;7.43;6.83;;;18.50;99.90;;;;;;10339003;28;20226;-78
2022/10/21 12:46:30;;;;;;;6.13;5.93;;;18.50;99.90;;;;;;10351616;28;20223;-78
2022/10/21 12:51:35;;;;;;;6.80;6.17;;;18.40;99.90;;;;;;10337774;28;20203;-78
2022/10/21 12:56:44;;;;;;;7.00;6.50;;;18.40;99.90;;;;;;10352041;28;20686;-78
2022/10/21 13:02:17;;;;;;;6.23;5.93;;;18.30;99.90;;;;;;10348955;28;20219;-80
2022/10/21 13:07:37;;;;;;;6.17;5.57;;;18.20;99.90;;;;;;10350334;28;20644;-80
2022/10/21 13:12:39;;;;;;;6.17;5.67;;;18.10;99.90;;;;;;10345599;28;20199;-79
2022/10/21 13:17:51;;;;;;;6.60;6.10;;;18.10;99.90;;;;;;10350153;28;20227;-79
2022/10/21 13:22:56;;;;;;;6.30;5.80;;;18.10;99.90;;;;;;10336158;28;20219;-78
2022/10/21 13:28:06;;;;;;;6.53;5.90;;;18.00;99.90;;;;;;10361146;28;20206;-81
2022/10/21 13:33:17;;;;;;;6.63;5.90;;;18.00;99.90;;;;;;10351068;28;20226;-79
2022/10/21 13:38:23;;;;;;;3.20;2.90;;;18.00;99.90;;;;;;10363346;28;20269;-80
2022/10/21 13:43:28;;;;;;;5.87;5.50;;;18.00;99.90;;;;;;10353201;28;20721;-80
2022/10/21 13:48:37;;;;;;;5.80;5.40;;;18.00;99.90;;;;;;10367297;28;20191;-80
2022/10/21 13:53:44;;;;;;;5.90;5.57;;;18.00;99.90;;;;;;10354851;28;20223;-78
2022/10/21 13:58:46;;;;;;;6.13;5.70;;;17.80;99.90;;;;;;10349899;28;20231;-79
2022/10/21 14:03:50;;;;;;;5.20;4.90;;;17.70;99.90;;;;;;10363160;28;20222;-79
2022/10/21 14:08:54;;;;;;;5.40;5.10;;;17.70;99.90;;;;;;10351169;28;20187;-79
2022/10/21 14:13:59;;;;;;;4.60;4.20;;;17.60;99.90;;;;;;10361511;28;20296;-79
2022/10/21 14:19:08;;;;;;;5.07;4.80;;;17.60;99.90;;;;;;10348751;28;20219;-79
2022/10/21 14:24:25;;;;;;;4.97;4.43;;;17.60;99.90;;;;;;10358831;28;20234;-77
2022/10/21 14:29:31;;;;;;;7.17;5.10;;;17.70;99.90;;;;;;10342639;28;20274;-77
2022/10/21 14:34:56;;;;;;;4.80;4.40;;;17.60;99.90;;;;;;10357370;28;20297;-77
2022/10/21 14:40:10;;;;;;;4.80;4.57;;;17.60;99.90;;;;;;10333490;28;20234;-77
2022/10/21 14:45:16;;;;;;;4.33;4.03;;;17.60;99.90;;;;;;10360759;28;20756;-77
2022/10/21 14:50:23;;;;;;;7.17;6.67;;;17.70;99.90;;;;;;10333369;28;20195;-78
2022/10/21 14:55:28;;;;;;;6.10;5.80;;;17.70;99.90;;;;;;10357882;28;20214;-78
2022/10/21 15:00:33;;;;;;;5.93;5.67;;;17.70;99.90;;;;;;10368068;28;20210;-77
2022/10/21 15:05:40;;;;;;;5.70;5.30;;;17.70;99.90;;;;;;10339857;28;20222;-78
2022/10/21 15:10:43;;;;;;;11.00;5.60;;;17.70;99.90;;;;;;10369303;28;20655;-77
2022/10/21 15:15:47;;;;;;;5.57;5.27;;;17.70;99.90;;;;;;10374786;28;20309;-77
2022/10/21 15:20:54;;;;;;;5.40;5.20;;;17.70;99.90;;;;;;10342628;28;20219;-77
2022/10/21 15:26:00;;;;;;;5.83;5.43;;;17.70;99.90;;;;;;10368050;28;20343;-78
2022/10/21 15:31:04;;;;;;;5.40;5.10;;;17.70;99.90;;;;;;10341878;28;20196;-77
2022/10/21 15:36:10;;;;;;;5.07;4.77;;;17.70;99.90;;;;;;10368018;28;20219;-77
2022/10/21 15:41:14;;;;;;;4.60;4.40;;;17.70;99.90;;;;;;10342853;28;20302;-78
2022/10/21 15:46:16;;;;;;;4.97;4.77;;;17.70;99.90;;;;;;10366292;28;20230;-77
2022/10/21 15:51:22;;;;;;;6.10;5.70;;;17.60;99.90;;;;;;10342123;28;20204;-77
2022/10/21 15:56:24;;;;;;;5.20;4.77;;;17.60;99.90;;;;;;10367336;28;20225;-77
2022/10/21 16:01:27;;;;;;;5.20;4.90;;;17.60;99.90;;;;;;10359032;28;20597;-77
2022/10/21 16:06:30;;;;;;;6.43;5.70;;;17.60;99.90;;;;;;10341542;28;20701;-78
2022/10/21 16:11:32;;;;;;;5.50;5.10;;;17.60;99.90;;;;;;10365628;28;20195;-77
2022/10/21 16:16:36;;;;;;;5.13;4.83;;;17.50;99.90;;;;;;10341644;28;20219;-78
2022/10/21 16:21:39;;;;;;;4.93;4.73;;;17.50;99.90;;;;;;10365073;28;20245;-77
2022/10/21 16:26:43;;;;;;;4.87;4.27;;;17.50;99.90;;;;;;10344627;28;20215;-77
2022/10/21 16:31:46;;;;;;;5.07;4.67;;;17.50;99.90;;;;;;10364076;28;20197;-77
2022/10/21 16:36:49;;;;;;;4.33;4.03;;;17.40;99.90;;;;;;10342722;28;20702;-77
2022/10/21 16:41:51;;;;;;;6.30;5.03;;;17.40;99.90;;;;;;10363002;28;20593;-77
2022/10/21 16:46:54;;;;;;;5.20;4.90;;;17.40;99.90;;;;;;10342977;28;20681;-77
2022/10/21 16:51:59;;;;;;;4.60;4.40;;;17.30;99.90;;;;;;10360772;28;20206;-77
2022/10/21 16:57:02;;;;;;;4.83;4.63;;;17.30;99.90;;;;;;10342054;28;20223;-77
2022/10/21 17:02:13;;;;;;;6.63;6.03;;;17.30;99.90;;;;;;10337594;28;20711;-78
2022/10/21 17:07:17;;;;;;;5.50;5.20;;;17.30;99.90;;;;;;10363270;28;20218;-78
2022/10/21 17:12:19;;;;;;;4.53;4.33;;;17.30;99.90;;;;;;10345177;28;20569;-78
2022/10/21 17:17:21;;;;;;;4.77;4.57;;;17.30;99.90;;;;;;10334640;28;20230;-78
2022/10/21 17:22:25;;;;;;;4.73;4.43;;;17.30;99.90;;;;;;10362239;28;20244;-78
2022/10/21 17:27:26;;;;;;;4.70;4.50;;;17.30;99.90;;;;;;10345161;28;20711;-78
2022/10/21 17:32:28;;;;;;;4.37;4.20;;;17.30;99.90;;;;;;10362624;28;20233;-78
2022/10/21 17:37:32;;;;;;;8.03;4.67;;;17.30;99.90;;;;;;10346622;28;20223;-78
2022/10/21 17:42:34;;;;;;;4.37;4.17;;;17.30;99.90;;;;;;10362257;28;20215;-78
2022/10/21 17:47:36;;;;;;;5.13;4.90;;;17.30;99.90;;;;;;10374873;28;20206;-78
2022/10/21 17:52:40;;;;;;;6.73;6.13;;;17.30;99.90;;;;;;10347898;28;20192;-77
2022/10/21 17:57:42;;;;;;;5.30;5.00;;;17.20;99.90;;;;;;10344106;28;20221;-78
2022/10/21 18:02:44;;;;;;;3.90;3.77;;;17.20;99.90;;;;;;10348364;28;20583;-78
2022/10/21 18:07:48;;;;;;;4.70;4.50;;;17.20;99.90;;;;;;10359097;28;20222;-78
2022/10/21 18:12:50;;;;;;;4.93;4.53;;;17.30;99.90;;;;;;10347474;28;20198;-78
2022/10/21 18:17:52;;;;;;;5.27;5.07;;;17.30;99.90;;;;;;10358778;28;20236;-78
2022/10/21 18:22:55;;;;;;;5.50;5.20;;;17.30;99.90;;;;;;10348337;28;20223;-78
2022/10/21 18:27:57;;;;;;;6.70;5.60;;;17.20;99.90;;;;;;10357307;28;20225;-78
2022/10/21 18:32:59;;;;;;;5.47;5.07;;;17.20;99.90;;;;;;10348657;28;20286;-78
2022/10/21 18:38:03;;;;;;;4.17;3.97;;;17.20;99.90;;;;;;10355277;28;20195;-78
2022/10/21 18:43:05;;;;;;;5.47;4.97;;;17.20;99.90;;;;;;10348484;28;20218;-78
2022/10/21 18:48:07;;;;;;;5.00;4.60;;;17.20;99.90;;;;;;10330408;28;20195;-78
2022/10/21 18:53:10;;;;;;;5.33;4.97;;;17.20;99.90;;;;;;10355033;28;20195;-78
2022/10/21 18:58:12;;;;;;;5.03;4.73;;;17.20;99.90;;;;;;10357031;28;20643;-78
2022/10/21 19:03:14;;;;;;;4.70;4.40;;;17.20;99.90;;;;;;10349232;28;20218;-78
2022/10/21 19:08:18;;;;;;;5.03;4.73;;;17.20;99.90;;;;;;10349818;28;20577;-78
2022/10/21 19:13:20;;;;;;;5.80;5.30;;;17.20;99.90;;;;;;10353889;28;20218;-78
2022/10/21 19:18:23;;;;;;;5.17;4.83;;;17.20;99.90;;;;;;10354905;28;20215;-78
2022/10/21 19:23:30;;;;;;;5.57;5.00;;;17.20;99.90;;;;;;10360939;28;20253;-79
2022/10/21 19:28:33;;;;;;;5.80;5.40;;;17.30;99.90;;;;;;10362088;28;20200;-77
2022/10/21 19:33:35;;;;;;;4.97;4.67;;;17.30;99.90;;;;;;10360981;28;20699;-79
2022/10/21 19:38:39;;;;;;;5.43;5.03;;;17.30;99.90;;;;;;10339169;28;20227;-80
2022/10/21 19:43:41;;;;;;;4.83;4.53;;;17.30;99.90;;;;;;10356546;28;20214;-79
2022/10/21 19:48:43;;;;;;;5.00;4.70;;;17.30;99.90;;;;;;10357983;28;20201;-79
2022/10/21 19:53:47;;;;;;;5.63;5.23;;;17.40;99.90;;;;;;10342835;28;20215;-78
2022/10/21 19:58:49;;;;;;;7.37;5.70;;;17.40;99.90;;;;;;10358323;28;20230;-78
2022/10/21 20:03:52;;;;;;;5.80;5.33;;;17.40;99.90;;;;;;10357342;28;20222;-78
2022/10/21 20:08:57;;;;;;;17.93;16.23;;;17.40;99.90;;;;;;10358921;28;20261;-78
2022/10/21 20:13:59;;;;;;;5.90;5.50;;;17.40;99.90;;;;;;10356123;28;20230;-78
2022/10/21 20:19:02;;;;;;;6.40;5.80;;;17.40;99.90;;;;;;10359506;28;20572;-78
2022/10/21 20:24:06;;;;;;;5.30;5.00;;;17.40;99.90;;;;;;10353843;28;20223;-78
2022/10/21 20:29:08;;;;;;;5.63;4.87;;;17.40;99.90;;;;;;10358243;28;20648;-78
2022/10/21 20:34:12;;;;;;;4.40;4.10;;;17.40;99.90;;;;;;10354589;28;20278;-78
2022/10/21 20:39:16;;;;;;;5.93;5.33;;;17.40;99.90;;;;;;10357993;28;20199;-78
2022/10/21 20:44:18;;;;;;;10.27;5.13;;;17.40;99.90;;;;;;10353079;28;20219;-78
2022/10/21 20:49:20;;;;;;;6.50;5.77;;;17.40;99.90;;;;;;10358086;28;20227;-78
2022/10/21 20:54:24;;;;;;;8.60;5.50;;;17.40;99.90;;;;;;10336087;28;20253;-78
2022/10/21 20:59:26;;;;;;;5.97;5.37;;;17.30;99.90;;;;;;10341830;28;20203;-78
2022/10/21 21:04:28;;;;;;;5.00;4.60;;;17.30;99.90;;;;;;10351329;28;20233;-79
2022/10/21 21:09:32;;;;;;;5.97;5.57;;;17.20;99.90;;;;;;10360537;28;20206;-78
2022/10/21 21:14:34;;;;;;;6.43;5.93;;;17.10;99.90;;;;;;10334445;28;20601;-78
2022/10/21 21:19:36;;;;;;;7.97;7.30;;;17.00;99.90;;;;;;10347848;28;20202;-78
2022/10/21 21:24:39;;;;;;;8.53;7.87;;;16.90;99.90;;;;;;10357349;28;20658;-78
2022/10/21 21:29:41;;;;;;;8.83;7.17;;;16.80;99.90;;;;;;10347209;28;20233;-78
2022/10/21 21:34:43;;;;;;;11.37;7.57;;;16.70;99.90;;;;;;10357663;28;20604;-78
2022/10/21 21:39:47;;;;;;;12.30;11.30;;;16.70;99.90;;;;;;10347074;28;20674;-78
2022/10/21 21:44:49;;;;;;;10.80;9.93;;;16.60;99.90;;;;;;10358945;28;20225;-78
2022/10/21 21:49:51;;;;;;;11.30;10.60;;;16.50;99.90;;;;;;10346044;28;20197;-78
2022/10/21 21:54:56;;;;;;;11.53;10.80;;;16.50;99.90;;;;;;10360509;28;20214;-78
2022/10/21 21:59:58;;;;;;;12.27;11.00;;;16.40;99.90;;;;;;10348733;28;20199;-78
2022/10/21 22:05:00;;;;;;;11.57;10.87;;;16.30;99.90;;;;;;10345869;28;20238;-78
2022/10/21 22:10:04;;;;;;;12.17;11.60;;;16.10;99.90;;;;;;10361427;28;20223;-78
2022/10/21 22:15:07;;;;;;;12.30;11.70;;;16.00;99.90;;;;;;10350288;28;20226;-77
2022/10/21 22:20:11;;;;;;;11.60;11.10;;;15.90;99.90;;;;;;10369428;28;20543;-77
2022/10/21 22:25:16;;;;;;;13.50;12.30;;;15.80;99.90;;;;;;10358610;28;20219;-77
2022/10/21 22:30:18;;;;;;;16.50;15.10;;;15.70;99.90;;;;;;10338202;28;20699;-78
2022/10/21 22:35:20;;;;;;;12.10;11.00;;;15.60;99.90;;;;;;10359267;28;20245;-77
2022/10/21 22:40:24;;;;;;;12.47;11.87;;;15.50;99.90;;;;;;10339801;28;20830;-77
2022/10/21 22:45:29;;;;;;;11.97;11.27;;;15.50;99.90;;;;;;10358609;28;20290;-77
2022/10/21 22:50:31;;;;;;;10.40;9.90;;;15.40;99.90;;;;;;10337629;28;20676;-77
2022/10/21 22:55:34;;;;;;;10.57;10.17;;;15.40;99.90;;;;;;10359113;28;20570;-77
2022/10/21 23:00:37;;;;;;;12.70;12.10;;;15.40;99.90;;;;;;10362316;28;20207;-77
2022/10/21 23:05:40;;;;;;;11.30;10.70;;;15.30;99.90;;;;;;10359271;28;20227;-77
2022/10/21 23:10:43;;;;;;;15.60;13.80;;;15.20;99.90;;;;;;10337468;28;20567;-77
2022/10/21 23:15:47;;;;;;;13.53;12.43;;;15.20;99.90;;;;;;10359548;28;20254;-77
2022/10/21 23:20:49;;;;;;;10.53;10.03;;;15.20;99.90;;;;;;10336574;28;20222;-77
2022/10/21 23:25:53;;;;;;;11.30;10.77;;;15.10;99.90;;;;;;10372529;28;20217;-77
2022/10/21 23:30:55;;;;;;;11.57;10.97;;;15.10;99.90;;;;;;10367222;28;20198;-78
2022/10/21 23:35:57;;;;;;;11.17;10.60;;;15.00;99.90;;;;;;10361777;28;20235;-78
2022/10/21 23:41:00;;;;;;;13.07;12.00;;;15.00;99.90;;;;;;10351320;28;20269;-78
2022/10/21 23:46:02;;;;;;;12.23;11.33;;;14.90;99.90;;;;;;10381044;28;20229;-79
2022/10/21 23:51:05;;;;;;;13.00;12.00;;;14.90;99.90;;;;;;10349290;28;20190;-79
2022/10/21 23:56:08;;;;;;;12.13;11.20;;;14.90;99.90;;;;;;10376847;28;20212;-77
